Time;durP1;ratioP1;P1;durP2;ratioP2;P2;SDS_P1;SDS_P2;PMS_P1;PMS_P2;Temp;Humidity;BMP_temperature;BMP_pressure;BME280_temperature;BME280_humidity;BME280_pressure;Samples;Min_cycle;Max_cycle;Signal;HPM_P1;HPM_P2
2022/12/01 00:02:01;;;;;;;190.02;76.30;;;;;;;4.53;100.00;138021.63;5029476;28;20045;-62
2022/12/01 00:04:26;;;;;;;185.18;72.80;;;;;;;4.55;100.00;137678.22;5030979;28;20075;-62
2022/12/01 00:06:51;;;;;;;183.65;71.35;;;;;;;4.54;100.00;137327.94;5029825;28;20120;-62
2022/12/01 00:12:01;;;;;;;175.63;62.45;;;;;;;4.54;100.00;137327.94;5029432;28;20052;-63
2022/12/01 00:14:26;;;;;;;148.93;67.00;;;;;;;4.52;100.00;136975.47;5031406;28;20033;-62
2022/12/01 00:16:51;;;;;;;172.57;62.88;;;;;;;4.55;100.00;136983.41;5029486;28;20034;-62
2022/12/01 00:19:17;;;;;;;174.63;70.55;;;;;;;4.53;100.00;136977.75;5026647;28;20404;-62
2022/12/01 00:21:42;;;;;;;191.52;74.75;;;;;;;4.51;100.00;136625.31;5029733;28;20041;-62
2022/12/01 00:24:09;;;;;;;202.57;73.50;;;;;;;4.52;100.00;136279.72;5031118;28;20029;-62
2022/12/01 00:26:36;;;;;;;173.52;66.53;;;;;;;4.57;100.00;135943.13;5029374;28;20049;-62
2022/12/01 00:29:01;;;;;;;177.95;60.78;;;;;;;4.57;100.00;135595.31;5030947;28;20041;-62
2022/12/01 00:31:27;;;;;;;174.07;68.78;;;;;;;4.57;100.00;135247.50;5029695;28;20045;-62
2022/12/01 00:33:53;;;;;;;182.48;72.50;;;;;;;4.54;100.00;135240.78;5030492;28;20468;-62
2022/12/01 00:36:18;;;;;;;173.25;63.08;;;;;;;4.51;100.00;135234.06;5029511;28;20128;-62
2022/12/01 00:38:44;;;;;;;162.02;58.67;;;;;;;4.50;100.00;134884.13;5030700;28;20078;-62
2022/12/01 00:41:09;;;;;;;153.38;58.30;;;;;;;4.43;100.00;134870.72;5029120;28;20676;-62
2022/12/01 00:43:34;;;;;;;164.68;60.63;;;;;;;4.45;100.00;134179.84;5030659;28;20061;-62
2022/12/01 00:46:00;;;;;;;128.27;53.70;;;;;;;4.39;100.00;134514.16;5029170;28;20028;-62
2022/12/01 00:48:25;;;;;;;162.85;59.40;;;;;;;4.42;100.00;133825.59;5030557;28;20017;-62
2022/12/01 00:50:53;;;;;;;145.88;53.45;;;;;;;4.43;100.00;133827.78;5029169;28;20017;-62
2022/12/01 00:53:18;;;;;;;143.00;59.75;;;;;;;4.44;100.00;133828.91;5030831;28;20013;-62
2022/12/01 00:55:44;;;;;;;152.00;62.85;;;;;;;4.40;100.00;133821.19;5028951;28;20028;-61
2022/12/01 00:58:09;;;;;;;152.60;61.50;;;;;;;4.45;100.00;133832.22;5032157;28;20041;-62
2022/12/01 01:00:37;;;;;;;137.30;54.38;;;;;;;4.41;100.00;134169.84;5037439;28;20029;-63
2022/12/01 01:03:03;;;;;;;155.35;59.58;;;;;;;4.40;100.00;134515.25;5035143;28;20041;-63
2022/12/01 01:05:28;;;;;;;152.98;60.92;;;;;;;4.34;100.00;134850.69;5037382;28;20095;-63
2022/12/01 01:07:54;;;;;;;138.85;55.58;;;;;;;4.38;100.00;134858.47;5035591;28;20488;-63
2022/12/01 01:10:19;;;;;;;128.88;56.65;;;;;;;4.36;100.00;135202.78;5037052;28;20048;-63
2022/12/01 01:12:44;;;;;;;151.68;61.17;;;;;;;4.37;100.00;135552.72;5037398;28;20060;-63
2022/12/01 01:15:10;;;;;;;138.05;50.97;;;;;;;4.34;100.00;135893.72;5056971;28;20352;-64
2022/12/01 01:17:35;;;;;;;130.68;56.75;;;;;;;4.37;100.00;136248.19;5055144;28;20037;-63
2022/12/01 01:20:00;;;;;;;134.63;56.67;;;;;;;4.37;100.00;136943.78;5056483;28;20036;-63
2022/12/01 01:22:26;;;;;;;132.25;54.00;;;;;;;4.38;100.00;137292.78;5055743;28;20091;-63
2022/12/01 01:24:51;;;;;;;125.55;54.22;;;;;;;4.38;100.00;137641.78;5056531;28;20024;-63
2022/12/01 01:27:16;;;;;;;114.03;49.13;;;;;;;4.35;100.00;138330.78;5055511;28;20407;-63
2022/12/01 01:29:42;;;;;;;122.05;54.25;;;;;;;4.37;100.00;138683.28;5057065;28;20029;-62
2022/12/01 01:32:07;;;;;;;146.25;60.50;;;;;;;4.39;100.00;138686.75;5055127;28;20102;-63
2022/12/01 01:34:33;;;;;;;123.00;55.25;;;;;;;4.42;100.00;139041.63;5056634;28;20024;-62
2022/12/01 01:36:58;;;;;;;138.43;57.75;;;;;;;4.43;100.00;139045.06;5055258;28;20041;-63
2022/12/01 01:39:24;;;;;;;155.65;58.30;;;;;;;4.41;100.00;139388.53;5056543;28;20452;-63
2022/12/01 01:41:49;;;;;;;134.05;51.95;;;;;;;4.40;100.00;139734.28;5054947;28;20056;-63
2022/12/01 01:44:45;;;;;;;162.70;61.42;;;;;;;4.39;100.00;139730.84;5056895;28;20442;-60
2022/12/01 01:47:12;;;;;;;169.45;66.75;;;;;;;4.38;100.00;139729.66;5054969;28;20590;-61
2022/12/01 01:49:38;;;;;;;164.18;58.00;;;;;;;4.40;100.00;139733.09;5056833;28;20055;-61
2022/12/01 01:52:03;;;;;;;178.77;67.35;;;;;;;4.44;100.00;139395.44;5054981;28;20048;-61
2022/12/01 01:54:38;;;;;;;165.88;66.15;;;;;;;4.45;100.00;139397.75;5056632;28;20163;-61
2022/12/01 01:57:05;;;;;;;159.63;61.22;;;;;;;4.38;100.00;139729.66;5055033;28;20120;-63
2022/12/01 01:59:41;;;;;;;173.13;62.92;;;;;;;4.41;100.00;140432.84;5056377;28;20498;-63
2022/12/01 02:02:09;;;;;;;147.02;59.65;;;;;;;4.44;100.00;140786.81;5054792;28;20045;-63
2022/12/01 02:04:39;;;;;;;140.55;61.85;;;;;;;4.41;100.00;141477.41;5056852;28;20031;-63
2022/12/01 02:07:05;;;;;;;155.02;68.10;;;;;;;4.41;100.00;142173.94;5041557;28;20047;-63
2022/12/01 02:09:30;;;;;;;143.63;63.75;;;;;;;4.38;100.00;142862.28;5035010;28;20071;-63
2022/12/01 02:12:22;;;;;;;147.32;61.72;;;;;;;4.39;100.00;143561.38;5031594;28;20049;-63
2022/12/01 02:15:25;;;;;;;148.52;60.08;;;;;;;4.38;100.00;144604.28;4982909;28;20117;-63
2022/12/01 02:18:08;;;;;;;150.35;68.88;;;;;;;4.37;100.00;145648.63;5031165;28;20096;-63
2022/12/01 02:20:52;;;;;;;154.35;61.17;;;;;;;4.42;100.00;146357.97;5030958;28;20067;-63
2022/12/01 02:23:27;;;;;;;159.90;64.25;;;;;;;4.41;100.00;147052.88;5051754;28;20150;-63
2022/12/01 02:26:21;;;;;;;141.93;66.88;;;;;;;4.42;100.00;148100.31;5051582;28;20020;-63
2022/12/01 02:29:12;;;;;;;146.93;66.25;;;;;;;4.42;100.00;149148.09;5051088;28;20028;-63
2022/12/01 02:31:54;;;;;;;138.85;65.88;;;;;;;4.47;100.00;149506.88;5051512;28;20040;-63
2022/12/01 02:34:30;;;;;;;124.45;58.75;;;;;;;4.47;100.00;151251.91;5042717;28;20052;-64
2022/12/01 02:37:09;;;;;;;125.47;56.40;;;;;;;4.48;100.00;152651.03;5031464;28;20180;-63
2022/12/01 02:39:41;;;;;;;135.95;60.30;;;;;;;4.37;100.00;154719.81;5032875;28;20021;-63
2022/12/01 02:42:48;;;;;;;129.90;59.65;;;;;;;4.41;100.00;156676.47;5031243;28;20045;-63
2022/12/01 02:45:10;;;;;;;120.77;55.63;;;;;;;4.40;100.00;158092.56;5032646;28;20057;-63
2022/12/01 02:47:38;;;;;;;132.98;63.75;;;;;;;4.41;100.00;158865.56;5031401;28;20042;-63
2022/12/01 02:50:06;;;;;;;133.50;64.18;;;;;;;4.45;100.00;159392.50;5032772;28;20029;-63
2022/12/01 02:52:33;;;;;;;135.90;60.60;;;;;;;4.45;100.00;159780.53;5031342;28;20094;-63
2022/12/01 02:54:58;;;;;;;133.52;62.15;;;;;;;4.38;100.00;160516.16;5032351;28;20051;-63
2022/12/01 02:57:24;;;;;;;144.23;62.22;;;;;;;4.37;100.00;160920.72;5031045;28;20045;-63
2022/12/01 02:59:54;;;;;;;114.47;57.42;;;;;;;4.40;100.00;160983.41;5032448;28;20033;-63
2022/12/01 03:02:47;;;;;;;121.85;59.42;;;;;;;4.38;100.00;161251.38;5044797;28;20040;-63
2022/12/01 03:05:15;;;;;;;149.77;63.33;;;;;;;4.36;100.00;161114.81;5052598;28;20048;-63
2022/12/01 03:07:50;;;;;;;158.63;66.60;;;;;;;4.36;100.00;160748.59;5050660;28;20558;-62
2022/12/01 03:10:24;;;;;;;119.15;60.60;;;;;;;4.39;100.00;160275.63;5052620;28;20067;-63
2022/12/01 03:13:15;;;;;;;121.53;54.58;;;;;;;4.39;100.00;160182.69;5050667;28;20082;-63
2022/12/01 03:16:19;;;;;;;140.52;62.42;;;;;;;4.37;100.00;161066.97;5051813;28;20037;-63
2022/12/01 03:18:59;;;;;;;112.32;57.35;;;;;;;4.37;100.00;161710.66;5050890;28;20053;-64
2022/12/01 03:21:39;;;;;;;113.72;55.08;;;;;;;4.37;100.00;161710.66;5050755;28;20095;-64
2022/12/01 03:24:13;;;;;;;114.63;57.13;;;;;;;4.37;100.00;161710.66;5051928;28;20127;-64
2022/12/01 03:26:42;;;;;;;117.55;56.92;;;;;;;4.33;100.00;161699.94;5050564;28;20036;-64
2022/12/01 03:29:13;;;;;;;112.82;51.50;;;;;;;4.33;100.00;161699.94;5043872;28;20032;-64
2022/12/01 03:31:45;;;;;;;115.70;55.95;;;;;;;4.33;100.00;161698.56;5030457;28;20129;-63
2022/12/01 03:34:22;;;;;;;105.68;52.38;;;;;;;4.34;100.00;161702.63;5031819;28;20028;-63
2022/12/01 03:36:53;;;;;;;99.57;51.97;;;;;;;4.35;100.00;161703.94;5030455;28;20057;-64
2022/12/01 03:39:28;;;;;;;105.97;56.13;;;;;;;4.34;100.00;161702.63;5031683;28;20481;-64
2022/12/01 03:42:01;;;;;;;93.03;51.72;;;;;;;4.32;100.00;161697.22;5030258;28;20069;-64
2022/12/01 03:44:34;;;;;;;96.68;52.45;;;;;;;4.29;100.00;161689.16;5031536;28;20051;-64
2022/12/01 03:47:04;;;;;;;95.03;49.78;;;;;;;4.35;100.00;161705.31;5030315;28;20034;-64
2022/12/01 03:49:31;;;;;;;85.57;47.53;;;;;;;4.34;100.00;161701.25;5031732;28;20340;-64
2022/12/01 03:52:02;;;;;;;90.25;50.05;;;;;;;4.34;100.00;161701.25;5029773;28;20033;-64
2022/12/01 03:54:49;;;;;;;90.47;50.30;;;;;;;4.33;100.00;161699.94;5031783;28;20018;-64
2022/12/01 03:57:21;;;;;;;90.80;49.03;;;;;;;4.40;100.00;161718.75;5029931;28;20049;-63
2022/12/01 03:59:47;;;;;;;95.57;52.00;;;;;;;4.38;100.00;161712.03;5031124;28;20514;-64
2022/12/01 04:02:13;;;;;;;83.60;45.75;;;;;;;4.36;100.00;161707.97;5030129;28;20599;-64
2022/12/01 04:04:38;;;;;;;84.95;50.45;;;;;;;4.35;100.00;161703.94;5031560;28;20108;-63
2022/12/01 04:07:04;;;;;;;93.85;48.90;;;;;;;4.35;100.00;161705.31;5029346;28;20045;-64
2022/12/01 04:09:29;;;;;;;95.65;49.53;;;;;;;4.32;100.00;161697.22;5031485;28;20022;-63
2022/12/01 04:14:39;;;;;;;95.10;54.05;;;;;;;4.32;100.00;161697.22;5051084;28;20036;-63
2022/12/01 04:17:04;;;;;;;108.28;57.83;;;;;;;4.34;100.00;161702.63;5049447;28;20049;-63
2022/12/01 04:19:29;;;;;;;100.72;51.90;;;;;;;4.36;100.00;161707.97;5051081;28;20013;-64
2022/12/01 04:21:55;;;;;;;118.90;54.13;;;;;;;4.38;100.00;161713.34;5049022;28;20637;-64
2022/12/01 04:24:20;;;;;;;107.38;57.17;;;;;;;4.40;100.00;161718.75;5042011;28;20033;-65
2022/12/01 04:26:46;;;;;;;94.18;53.47;;;;;;;4.40;100.00;161718.75;5029796;28;20041;-64
2022/12/01 04:29:13;;;;;;;102.55;55.72;;;;;;;4.40;100.00;161717.38;5030805;28;20449;-64
2022/12/01 04:31:39;;;;;;;116.00;57.58;;;;;;;4.43;100.00;161726.78;5029581;28;20116;-64
2022/12/01 04:34:05;;;;;;;106.88;56.70;;;;;;;4.42;100.00;161724.13;5030468;28;20024;-64
2022/12/01 04:36:32;;;;;;;118.70;63.10;;;;;;;4.45;100.00;161732.19;5030636;28;20100;-64
2022/12/01 04:38:58;;;;;;;110.88;58.63;;;;;;;4.42;100.00;161724.13;5028882;28;20107;-64
2022/12/01 04:41:23;;;;;;;104.50;56.80;;;;;;;4.46;100.00;161733.56;5031225;28;20758;-64
2022/12/01 04:43:50;;;;;;;98.25;57.35;;;;;;;4.47;100.00;161734.88;5028745;28;20056;-65
2022/12/01 04:46:16;;;;;;;110.03;61.20;;;;;;;4.44;100.00;161729.47;5041763;28;20480;-62
2022/12/01 04:48:42;;;;;;;111.45;56.05;;;;;;;4.45;100.00;161732.19;5049317;28;20041;-63
2022/12/01 04:51:08;;;;;;;102.40;54.20;;;;;;;4.41;100.00;161721.44;5050342;28;20032;-62
2022/12/01 04:53:34;;;;;;;105.53;60.85;;;;;;;4.44;100.00;161729.47;5049072;28;20123;-62
2022/12/01 04:56:00;;;;;;;102.97;55.30;;;;;;;4.46;100.00;161733.56;5050591;28;20075;-62
2022/12/01 04:58:27;;;;;;;103.05;55.75;;;;;;;4.45;100.00;161732.19;5048822;28;20040;-62
2022/12/01 05:00:53;;;;;;;102.70;54.55;;;;;;;4.45;100.00;161732.19;5040342;28;20033;-63
2022/12/01 05:03:18;;;;;;;104.03;58.40;;;;;;;4.44;100.00;161728.16;5029338;28;20042;-62
2022/12/01 05:05:44;;;;;;;105.03;56.53;;;;;;;4.48;100.00;161737.56;5035286;28;20044;-62
2022/12/01 05:08:10;;;;;;;107.45;57.25;;;;;;;4.47;100.00;161734.88;5048386;28;20042;-63
2022/12/01 05:10:36;;;;;;;94.78;50.53;;;;;;;4.43;100.00;161725.47;5050694;28;20028;-64
2022/12/01 05:13:03;;;;;;;103.38;56.20;;;;;;;4.44;100.00;161729.47;5047314;28;20052;-61
2022/12/01 05:15:28;;;;;;;102.65;56.28;;;;;;;4.43;100.00;161726.78;5033886;28;20380;-62
2022/12/01 05:17:54;;;;;;;105.30;56.58;;;;;;;4.45;100.00;161732.19;5023696;28;20041;-62
2022/12/01 05:23:06;;;;;;;101.65;55.78;;;;;;;4.47;100.00;161734.88;5046892;28;20047;-60
2022/12/01 05:25:32;;;;;;;110.85;62.53;;;;;;;4.44;100.00;161729.47;5050534;28;20033;-59
2022/12/01 05:27:58;;;;;;;111.63;61.95;;;;;;;4.45;100.00;161730.84;5048600;28;20046;-61
2022/12/01 05:30:23;;;;;;;100.68;59.85;;;;;;;4.43;100.00;161725.47;5049197;28;20037;-61
2022/12/01 05:32:49;;;;;;;103.93;55.70;;;;;;;4.40;100.00;161718.75;5048424;28;20511;-61
2022/12/01 05:35:14;;;;;;;95.65;52.40;;;;;;;4.42;100.00;161724.13;5050380;28;20119;-61
2022/12/01 05:37:39;;;;;;;96.03;49.85;;;;;;;4.42;100.00;161724.13;5047336;28;20048;-61
2022/12/01 05:40:05;;;;;;;93.53;54.33;;;;;;;4.41;100.00;161721.44;5048272;28;20546;-61
2022/12/01 05:42:31;;;;;;;105.53;53.92;;;;;;;4.41;100.00;161720.06;5048753;28;20041;-61
2022/12/01 05:44:56;;;;;;;105.32;54.95;;;;;;;4.38;100.00;161713.34;5049850;28;20514;-61
2022/12/01 05:47:21;;;;;;;120.15;56.22;;;;;;;4.33;100.00;161699.94;5052578;28;20056;-61
2022/12/01 05:49:47;;;;;;;105.57;55.58;;;;;;;4.38;100.00;161713.34;5053745;28;20041;-61
2022/12/01 05:52:12;;;;;;;97.95;55.83;;;;;;;4.36;100.00;161706.66;5052030;28;20041;-61
2022/12/01 05:54:37;;;;;;;100.97;58.45;;;;;;;4.38;100.00;161713.34;5053960;28;20024;-61
2022/12/01 05:57:03;;;;;;;111.25;60.80;;;;;;;4.40;100.00;161718.75;5052202;28;20114;-61
2022/12/01 05:59:28;;;;;;;102.95;57.47;;;;;;;4.41;100.00;161720.06;5053231;28;20021;-61
2022/12/01 06:01:53;;;;;;;107.25;54.40;;;;;;;4.42;100.00;161724.13;5052265;28;20045;-61
2022/12/01 06:04:19;;;;;;;105.57;56.17;;;;;;;4.41;100.00;161720.06;5053611;28;20392;-61
2022/12/01 06:06:44;;;;;;;109.53;59.58;;;;;;;4.43;100.00;161725.47;5051812;28;20043;-61
2022/12/01 06:09:10;;;;;;;113.50;62.13;;;;;;;4.44;100.00;161729.47;5053329;28;20035;-61
2022/12/01 06:11:35;;;;;;;103.47;54.22;;;;;;;4.45;100.00;161732.19;5052137;28;20041;-61
2022/12/01 06:14:01;;;;;;;109.30;58.75;;;;;;;4.46;100.00;161733.56;5053072;28;20028;-61
2022/12/01 06:16:26;;;;;;;110.88;59.63;;;;;;;4.44;100.00;161728.16;5052109;28;20422;-61
2022/12/01 06:18:51;;;;;;;111.72;56.17;;;;;;;4.44;100.00;161729.47;5053000;28;20078;-61
2022/12/01 06:21:17;;;;;;;99.82;55.13;;;;;;;4.47;100.00;161734.88;5051569;28;20048;-61
2022/12/01 06:23:42;;;;;;;111.85;55.38;;;;;;;4.45;100.00;161732.19;5053372;28;20021;-61
2022/12/01 06:26:08;;;;;;;108.82;58.55;;;;;;;4.44;100.00;161729.47;5051798;28;20407;-61
2022/12/01 06:28:33;;;;;;;107.60;59.60;;;;;;;4.43;100.00;161726.78;5053045;28;20024;-61
2022/12/01 06:30:59;;;;;;;112.80;57.58;;;;;;;4.43;100.00;161726.78;5051475;28;20025;-61
2022/12/01 06:33:24;;;;;;;123.28;60.58;;;;;;;4.45;100.00;161732.19;5048037;28;20017;-61
2022/12/01 06:35:57;;;;;;;115.82;57.75;;;;;;;4.47;100.00;161734.88;5051139;28;20040;-61
2022/12/01 06:38:23;;;;;;;106.45;55.38;;;;;;;4.43;100.00;161726.78;5052869;28;20025;-61
2022/12/01 06:40:48;;;;;;;121.47;66.07;;;;;;;4.44;100.00;161729.47;5051248;28;20499;-60
2022/12/01 06:43:13;;;;;;;120.47;61.30;;;;;;;4.45;100.00;161732.19;5052549;28;20379;-61
2022/12/01 06:45:39;;;;;;;126.10;61.78;;;;;;;4.47;100.00;161734.88;5053073;28;20017;-61
2022/12/01 06:48:05;;;;;;;109.57;58.97;;;;;;;4.42;100.00;161724.13;5051151;28;20049;-61
2022/12/01 06:50:31;;;;;;;109.35;55.72;;;;;;;4.44;100.00;161728.16;5052838;28;20025;-60
2022/12/01 06:52:56;;;;;;;114.35;61.38;;;;;;;4.46;100.00;161733.56;5051051;28;20511;-60
2022/12/01 06:55:21;;;;;;;115.13;58.13;;;;;;;4.49;100.00;161740.25;5052864;28;20025;-60
2022/12/01 06:57:47;;;;;;;117.15;61.13;;;;;;;4.47;100.00;161734.88;5049681;28;20079;-60
2022/12/01 07:00:13;;;;;;;118.28;69.43;;;;;;;4.47;100.00;161734.88;5052687;28;20021;-61
2022/12/01 07:02:38;;;;;;;112.18;60.22;;;;;;;4.48;100.00;161737.56;5051214;28;20041;-60
2022/12/01 07:05:04;;;;;;;113.20;60.08;;;;;;;4.49;100.00;161740.25;5051983;28;20025;-60
2022/12/01 07:07:29;;;;;;;126.75;69.22;;;;;;;4.49;100.00;161740.25;5051102;28;20040;-60
2022/12/01 07:09:55;;;;;;;101.38;61.78;;;;;;;4.49;100.00;161740.25;5052123;28;20028;-60
2022/12/01 07:12:20;;;;;;;119.82;62.13;;;;;;;4.49;100.00;161740.25;5050737;28;20048;-60
2022/12/01 07:14:45;;;;;;;124.53;60.78;;;;;;;4.42;100.00;161724.13;5052478;28;20025;-60
2022/12/01 07:17:11;;;;;;;110.00;54.70;;;;;;;4.43;100.00;161726.78;5050580;28;20041;-60
2022/12/01 07:19:36;;;;;;;107.03;59.35;;;;;;;4.41;100.00;161721.44;5051460;28;20029;-60
2022/12/01 07:22:02;;;;;;;122.57;64.38;;;;;;;4.41;100.00;161721.44;5050607;28;20098;-60
2022/12/01 07:24:28;;;;;;;116.65;60.25;;;;;;;4.40;100.00;161718.75;5052081;28;20020;-60
2022/12/01 07:26:53;;;;;;;113.28;55.85;;;;;;;4.41;100.00;161720.06;5050060;28;20512;-60
2022/12/01 07:29:19;;;;;;;111.78;61.13;;;;;;;4.41;100.00;161721.44;5052003;28;20055;-60
2022/12/01 07:31:44;;;;;;;118.25;62.47;;;;;;;4.41;100.00;161721.44;5050516;28;20545;-60
2022/12/01 07:34:14;;;;;;;101.32;56.53;;;;;;;4.40;100.00;161717.38;5051414;28;20418;-60
2022/12/01 07:36:39;;;;;;;110.40;61.67;;;;;;;4.39;100.00;161716.06;5050329;28;20060;-60
2022/12/01 07:39:06;;;;;;;109.95;62.70;;;;;;;4.44;100.00;161729.47;5046567;28;20068;-60
2022/12/01 07:41:32;;;;;;;115.68;57.00;;;;;;;4.41;100.00;161721.44;5030208;28;20090;-60
2022/12/01 07:43:57;;;;;;;106.60;63.00;;;;;;;4.41;100.00;161721.44;5028100;28;20049;-60
2022/12/01 07:46:25;;;;;;;108.30;57.65;;;;;;;4.43;100.00;161726.78;5030081;28;20162;-60
2022/12/01 07:48:52;;;;;;;123.20;65.30;;;;;;;4.42;100.00;161722.78;5031007;28;20030;-60
2022/12/01 07:51:18;;;;;;;115.68;62.42;;;;;;;4.47;100.00;161736.19;5030190;28;20033;-60
2022/12/01 07:53:44;;;;;;;100.35;55.75;;;;;;;4.50;100.00;161742.97;5031646;28;20033;-60
2022/12/01 07:56:10;;;;;;;106.60;60.40;;;;;;;4.51;100.00;161746.97;5029817;28;20061;-60
2022/12/01 07:58:36;;;;;;;104.57;60.05;;;;;;;4.54;100.00;161755.00;5031426;28;20500;-60
2022/12/01 08:01:13;;;;;;;127.78;64.13;;;;;;;4.52;100.00;161749.66;5029908;28;20082;-60
2022/12/01 08:03:39;;;;;;;110.13;62.67;;;;;;;4.49;100.00;161740.25;5031081;28;20067;-60
2022/12/01 08:06:06;;;;;;;103.82;56.92;;;;;;;4.50;100.00;161744.28;5029822;28;20080;-60
2022/12/01 08:08:32;;;;;;;106.05;57.80;;;;;;;4.46;100.00;161733.56;5030956;28;20014;-60
2022/12/01 08:11:00;;;;;;;95.03;57.13;;;;;;;4.50;100.00;161742.97;5029500;28;20396;-60
2022/12/01 08:13:25;;;;;;;118.20;65.63;;;;;;;4.53;100.00;161752.38;5031492;28;20021;-60
2022/12/01 08:15:51;;;;;;;110.32;58.35;;;;;;;4.58;100.00;161764.44;5029720;28;20032;-60
2022/12/01 08:18:16;;;;;;;104.20;54.15;;;;;;;4.57;100.00;161761.78;5030760;28;20075;-60
2022/12/01 08:20:42;;;;;;;96.38;57.40;;;;;;;4.55;100.00;161756.38;5031153;28;20025;-61
2022/12/01 08:23:07;;;;;;;99.72;57.60;;;;;;;4.53;100.00;161751.00;5029382;28;20045;-61
2022/12/01 08:25:33;;;;;;;102.95;54.45;;;;;;;4.52;100.00;161749.66;5031378;28;20021;-60
2022/12/01 08:27:59;;;;;;;106.28;60.35;;;;;;;4.43;100.00;161726.78;5028473;28;20068;-61
2022/12/01 08:30:24;;;;;;;98.15;48.97;;;;;;;4.50;100.00;161742.97;5031215;28;20036;-61
2022/12/01 08:32:53;;;;;;;107.63;54.50;;;;;;;4.48;100.00;161737.56;5029136;28;20045;-60
2022/12/01 08:35:18;;;;;;;98.95;56.47;;;;;;;4.48;100.00;161737.56;5030569;28;20483;-60
2022/12/01 08:37:43;;;;;;;101.90;52.97;;;;;;;4.47;100.00;161734.88;5029349;28;20083;-60
2022/12/01 08:40:09;;;;;;;91.28;50.78;;;;;;;4.50;100.00;161744.28;5030352;28;20476;-60
2022/12/01 08:42:34;;;;;;;97.80;58.40;;;;;;;4.50;100.00;161742.97;5028937;28;20045;-61
2022/12/01 08:45:00;;;;;;;100.32;51.13;;;;;;;4.52;100.00;161749.66;5030525;28;20056;-61
2022/12/01 08:47:27;;;;;;;107.25;55.45;;;;;;;4.55;100.00;161756.38;5029515;28;20048;-61
2022/12/01 08:49:53;;;;;;;115.05;57.92;;;;;;;4.54;100.00;161753.69;5030427;28;20063;-61
2022/12/01 08:52:19;;;;;;;96.63;50.38;;;;;;;4.57;100.00;161761.78;5029404;28;20065;-61
2022/12/01 08:54:44;;;;;;;104.00;52.33;;;;;;;4.59;100.00;161767.13;5030959;28;20491;-61
2022/12/01 08:57:09;;;;;;;101.90;54.30;;;;;;;4.63;100.00;161777.91;5028846;28;20033;-61
2022/12/01 08:59:35;;;;;;;104.50;58.70;;;;;;;4.73;100.00;161804.75;5030735;28;20528;-61
2022/12/01 09:02:00;;;;;;;116.90;58.35;;;;;;;4.78;100.00;161815.56;5029111;28;20044;-61
2022/12/01 09:04:26;;;;;;;102.88;55.00;;;;;;;4.76;100.00;161812.84;5030436;28;20505;-61
2022/12/01 09:06:53;;;;;;;92.93;49.88;;;;;;;4.76;100.00;161811.53;5029095;28;20116;-60
2022/12/01 09:09:22;;;;;;;93.55;52.05;;;;;;;4.81;100.00;161823.59;5030598;28;20025;-61
2022/12/01 09:11:51;;;;;;;110.65;63.10;;;;;;;4.91;100.00;161850.50;5028882;28;20064;-61
2022/12/01 09:14:17;;;;;;;107.38;57.28;;;;;;;4.94;100.00;161858.59;5030946;28;20072;-61
2022/12/01 09:16:44;;;;;;;90.85;51.15;;;;;;;5.03;100.00;161882.75;5029134;28;20046;-61
2022/12/01 09:19:10;;;;;;;106.15;55.25;;;;;;;5.07;100.00;161893.53;5030676;28;20032;-61
2022/12/01 09:21:36;;;;;;;98.63;53.78;;;;;;;5.00;100.00;161874.72;5033379;28;20147;-61
2022/12/01 09:24:02;;;;;;;95.00;56.53;;;;;;;4.92;100.00;161854.53;5034441;28;20504;-60
2022/12/01 09:26:27;;;;;;;106.85;57.28;;;;;;;5.00;100.00;161874.72;5032776;28;20515;-61
2022/12/01 09:28:56;;;;;;;99.15;52.50;;;;;;;4.98;100.00;161869.31;5034292;28;20358;-60
2022/12/01 09:31:22;;;;;;;95.85;53.30;;;;;;;5.02;100.00;161878.75;5032940;28;20041;-60
2022/12/01 09:33:52;;;;;;;96.85;54.38;;;;;;;5.03;100.00;161882.75;5033872;28;20021;-61
2022/12/01 09:36:18;;;;;;;99.70;52.35;;;;;;;5.01;100.00;161876.03;5032972;28;20051;-60
2022/12/01 09:38:43;;;;;;;102.95;53.90;;;;;;;5.05;100.00;161888.16;5034266;28;20025;-60
2022/12/01 09:41:36;;;;;;;93.20;55.10;;;;;;;5.05;100.00;161888.16;5032066;28;20045;-61
2022/12/01 09:44:21;;;;;;;99.68;52.63;;;;;;;5.07;100.00;161893.53;5033693;28;20144;-60
2022/12/01 09:46:50;;;;;;;82.43;43.72;;;;;;;5.02;100.00;161880.13;5032748;28;20068;-60
2022/12/01 09:49:21;;;;;;;99.45;52.80;;;;;;;5.07;100.00;161893.53;5033854;28;20645;-61
2022/12/01 09:51:48;;;;;;;97.07;52.03;;;;;;;5.04;100.00;161885.47;5032539;28;20041;-61
2022/12/01 09:54:13;;;;;;;91.20;53.38;;;;;;;5.07;100.00;161893.53;5016369;28;20021;-61
2022/12/01 09:56:43;;;;;;;92.80;53.50;;;;;;;5.06;100.00;161890.84;5032127;28;20045;-61
2022/12/01 09:59:16;;;;;;;88.55;47.40;;;;;;;5.15;100.00;161912.38;5033499;28;20688;-60
2022/12/01 10:01:43;;;;;;;92.45;49.05;;;;;;;5.19;100.00;161924.50;5032833;28;20065;-60
2022/12/01 10:04:18;;;;;;;95.43;48.80;;;;;;;5.20;100.00;161927.19;5033299;28;20024;-60
2022/12/01 10:07:02;;;;;;;86.18;46.88;;;;;;;5.20;100.00;161925.81;5032317;28;20038;-60
2022/12/01 10:09:38;;;;;;;90.47;53.95;;;;;;;5.22;100.00;161931.19;5033332;28;20033;-60
2022/12/01 10:12:15;;;;;;;87.72;52.03;;;;;;;5.24;100.00;161936.59;5032041;28;20044;-60
2022/12/01 10:14:43;;;;;;;91.15;53.60;;;;;;;5.13;100.00;161908.34;5033712;28;20021;-60
2022/12/01 10:17:33;;;;;;;72.72;41.95;;;;;;;5.19;100.00;161924.50;5031522;28;20065;-60
2022/12/01 10:19:58;;;;;;;90.65;52.90;;;;;;;5.20;100.00;161927.19;5033078;28;20029;-61
2022/12/01 10:22:45;;;;;;;85.43;51.55;;;;;;;5.16;100.00;161916.41;5028701;28;20494;-61
2022/12/01 10:25:26;;;;;;;83.35;45.22;;;;;;;5.06;100.00;161890.84;5032554;28;20068;-60
2022/12/01 10:28:19;;;;;;;86.00;50.70;;;;;;;5.13;100.00;161906.97;5031661;28;20041;-61
2022/12/01 10:30:49;;;;;;;79.70;48.45;;;;;;;5.14;100.00;161911.00;5031713;28;20476;-58
2022/12/01 10:33:23;;;;;;;84.28;49.78;;;;;;;5.13;100.00;161906.97;5032916;28;20500;-61
2022/12/01 10:35:49;;;;;;;84.63;50.47;;;;;;;5.12;100.00;161904.28;5033221;28;20064;-61
2022/12/01 10:38:36;;;;;;;98.47;53.70;;;;;;;5.18;100.00;161921.78;5031663;28;20049;-61
2022/12/01 10:41:04;;;;;;;88.10;48.63;;;;;;;5.21;100.00;161928.50;5031273;28;20392;-60
2022/12/01 10:43:49;;;;;;;86.22;52.22;;;;;;;5.27;100.00;161944.66;5032998;28;20511;-61
2022/12/01 10:46:27;;;;;;;88.65;52.90;;;;;;;5.27;100.00;161943.31;5031387;28;20037;-61
2022/12/01 10:48:55;;;;;;;79.40;53.30;;;;;;;5.21;100.00;161929.81;5032817;28;20491;-61
2022/12/01 10:51:21;;;;;;;91.40;53.38;;;;;;;5.22;100.00;161931.19;5031777;28;20044;-61
2022/12/01 10:53:47;;;;;;;91.10;53.05;;;;;;;5.27;100.00;161944.66;5032350;28;20030;-60
2022/12/01 10:56:15;;;;;;;85.25;50.28;;;;;;;5.30;100.00;161952.72;5031361;28;20042;-61
2022/12/01 10:58:48;;;;;;;80.35;47.00;;;;;;;5.22;100.00;161931.19;5032925;28;20022;-61
2022/12/01 11:01:21;;;;;;;91.13;52.70;;;;;;;5.25;100.00;161939.25;5028111;28;20045;-61
2022/12/01 11:04:00;;;;;;;90.40;51.53;;;;;;;5.16;100.00;161915.06;5031748;28;20538;-61
2022/12/01 11:06:28;;;;;;;91.13;55.15;;;;;;;5.13;100.00;161906.97;5031544;28;20049;-60
2022/12/01 11:08:59;;;;;;;89.20;56.00;;;;;;;5.09;100.00;161897.56;5032173;28;20025;-60
2022/12/01 11:11:37;;;;;;;101.28;57.15;;;;;;;5.10;100.00;161898.94;5030736;28;20041;-60
2022/12/01 11:14:17;;;;;;;84.05;46.13;;;;;;;5.13;100.00;161906.97;5032597;28;20029;-60
2022/12/01 11:16:45;;;;;;;88.32;49.65;;;;;;;5.11;100.00;161901.59;5030609;28;20042;-60
2022/12/01 11:19:32;;;;;;;96.80;57.28;;;;;;;5.12;100.00;161904.28;5032048;28;20043;-60
2022/12/01 11:22:00;;;;;;;93.50;55.03;;;;;;;5.19;100.00;161923.13;5048912;28;20051;-60